Time;durP1;ratioP1;P1;durP2;ratioP2;P2;SDS_P1;SDS_P2;PMS_P1;PMS_P2;Temp;Humidity;BMP_temperature;BMP_pressure;BME280_temperature;BME280_humidity;BME280_pressure;Samples;Min_cycle;Max_cycle;Signal;HPM_P1;HPM_P2
2021/01/18 00:01:32;;;;;;;55.30;27.98;;;-0.70;99.90;;;;;;5033332;28;20049;-88
2021/01/18 00:03:58;;;;;;;56.75;29.83;;;-0.80;99.90;;;;;;5015808;28;20140;-87
2021/01/18 00:06:25;;;;;;;56.25;28.52;;;-1.00;99.90;;;;;;5015960;28;20569;-87
2021/01/18 00:08:52;;;;;;;54.72;28.17;;;-0.90;99.90;;;;;;5033312;28;20085;-87
2021/01/18 00:11:20;;;;;;;48.95;26.45;;;-0.80;99.90;;;;;;5016124;28;20053;-87
2021/01/18 00:13:49;;;;;;;53.60;27.02;;;-0.70;99.90;;;;;;5016229;28;20608;-88
2021/01/18 00:16:20;;;;;;;50.60;27.65;;;-0.80;99.90;;;;;;5033405;28;20141;-87
2021/01/18 00:18:46;;;;;;;53.58;26.77;;;-0.80;99.90;;;;;;5015856;28;20046;-87
2021/01/18 00:21:16;;;;;;;50.47;26.52;;;-0.70;99.90;;;;;;5033170;28;20095;-87
2021/01/18 00:23:43;;;;;;;51.38;27.73;;;-0.70;99.90;;;;;;5015861;28;20045;-88
2021/01/18 00:26:09;;;;;;;54.80;28.08;;;-0.60;99.90;;;;;;5033106;28;20140;-87
2021/01/18 00:28:40;;;;;;;60.70;28.88;;;-0.60;99.90;;;;;;5033274;28;20084;-87
2021/01/18 00:31:07;;;;;;;52.00;27.73;;;-0.80;99.90;;;;;;5033218;28;20049;-88
2021/01/18 00:33:34;;;;;;;50.00;27.33;;;-0.70;99.90;;;;;;5016004;28;20509;-87
2021/01/18 00:36:00;;;;;;;56.00;29.15;;;-0.60;99.90;;;;;;5033225;28;20144;-87
2021/01/18 00:38:27;;;;;;;57.08;27.90;;;-0.70;99.90;;;;;;5032983;28;20057;-87
2021/01/18 00:40:54;;;;;;;52.85;27.48;;;-0.60;99.90;;;;;;5015507;28;20088;-88
2021/01/18 00:43:20;;;;;;;49.90;27.80;;;-0.50;99.90;;;;;;5015541;28;20049;-87
2021/01/18 00:45:47;;;;;;;54.15;28.27;;;-0.50;99.90;;;;;;5015707;28;20061;-87
2021/01/18 00:48:13;;;;;;;51.65;27.65;;;-0.50;99.90;;;;;;5015759;28;20116;-87
2021/01/18 00:50:40;;;;;;;51.97;28.35;;;-0.50;99.90;;;;;;5015859;28;20045;-86
2021/01/18 00:53:06;;;;;;;51.95;28.35;;;-0.40;99.90;;;;;;5033162;28;20136;-87
2021/01/18 00:55:32;;;;;;;49.60;27.27;;;-0.40;99.90;;;;;;5015866;28;20547;-88
2021/01/18 00:57:59;;;;;;;53.28;27.70;;;-0.40;99.90;;;;;;5032809;28;20088;-87
2021/01/18 01:00:27;;;;;;;59.22;29.02;;;-0.40;99.90;;;;;;5048462;28;20151;-88
2021/01/18 01:02:55;;;;;;;55.17;28.88;;;-0.40;99.90;;;;;;5033499;28;20064;-88
2021/01/18 01:05:27;;;;;;;61.97;30.52;;;-0.40;99.90;;;;;;5015312;28;20471;-87
2021/01/18 01:07:56;;;;;;;58.75;30.88;;;-0.70;99.90;;;;;;5015458;28;20124;-88
2021/01/18 01:10:31;;;;;;;54.75;29.40;;;-0.60;99.90;;;;;;5015515;28;20096;-86
2021/01/18 01:12:59;;;;;;;65.13;31.67;;;-0.70;99.90;;;;;;5032785;28;20049;-87
2021/01/18 01:15:26;;;;;;;56.58;28.88;;;-0.80;99.90;;;;;;5036306;28;20474;-88
2021/01/18 01:17:53;;;;;;;60.60;30.90;;;-0.70;99.90;;;;;;5018681;28;20176;-87
2021/01/18 01:20:21;;;;;;;65.68;32.67;;;-0.70;99.90;;;;;;5036246;28;20139;-87
2021/01/18 01:22:47;;;;;;;61.80;30.73;;;-0.60;99.90;;;;;;5018400;28;20093;-87
2021/01/18 01:25:15;;;;;;;66.05;31.63;;;-0.70;99.90;;;;;;5036077;28;20464;-87
2021/01/18 01:27:42;;;;;;;69.03;31.95;;;-0.70;99.90;;;;;;5036379;28;20057;-87
2021/01/18 01:30:14;;;;;;;67.25;31.73;;;-0.80;99.90;;;;;;5018642;28;20055;-87
2021/01/18 01:32:41;;;;;;;63.58;31.70;;;-0.80;99.90;;;;;;5035871;28;20111;-87
2021/01/18 01:35:09;;;;;;;67.57;30.85;;;-0.80;99.90;;;;;;5051288;28;20410;-87
2021/01/18 01:37:37;;;;;;;60.20;30.75;;;-0.60;99.90;;;;;;5018367;28;20458;-87
2021/01/18 01:40:08;;;;;;;60.30;31.13;;;-0.50;99.90;;;;;;5036199;28;20041;-87
2021/01/18 01:42:35;;;;;;;60.40;30.92;;;-0.50;99.90;;;;;;5036197;28;20092;-86
2021/01/18 01:45:02;;;;;;;54.65;29.35;;;-0.50;99.90;;;;;;5018689;28;20108;-85
2021/01/18 01:47:57;;;;;;;58.17;29.90;;;-0.50;99.90;;;;;;5036018;28;20572;-87
2021/01/18 01:50:26;;;;;;;60.58;29.13;;;-0.50;99.90;;;;;;5006258;28;20048;-88
2021/01/18 01:53:08;;;;;;;56.88;29.33;;;-0.60;99.90;;;;;;5018473;28;20095;-87
2021/01/18 01:55:35;;;;;;;60.72;30.02;;;-0.60;99.90;;;;;;5018763;28;20095;-87
2021/01/18 01:58:02;;;;;;;60.63;28.83;;;-0.50;99.90;;;;;;5018292;28;20085;-88
2021/01/18 02:00:36;;;;;;;64.85;31.00;;;-0.60;99.90;;;;;;5018259;28;20053;-88
2021/01/18 02:03:19;;;;;;;58.80;30.33;;;-0.60;99.90;;;;;;5017929;28;20485;-87
2021/01/18 02:05:45;;;;;;;59.45;29.73;;;-0.60;99.90;;;;;;5035429;28;20091;-87
2021/01/18 02:08:12;;;;;;;55.45;28.70;;;-0.60;99.90;;;;;;5017853;28;20109;-87
2021/01/18 02:10:38;;;;;;;57.10;29.42;;;-0.60;99.90;;;;;;5018027;28;20076;-87
2021/01/18 02:13:36;;;;;;;57.25;30.08;;;-0.50;99.90;;;;;;5017623;28;20077;-87
2021/01/18 02:16:16;;;;;;;53.65;28.10;;;-0.50;99.90;;;;;;5035128;28;20136;-87
2021/01/18 02:18:47;;;;;;;53.83;28.25;;;-0.40;99.90;;;;;;5017772;28;20045;-87
2021/01/18 02:21:24;;;;;;;50.30;27.92;;;-0.30;99.90;;;;;;5050482;28;20488;-87
2021/01/18 02:24:28;;;;;;;50.42;26.42;;;-0.20;99.90;;;;;;5035229;28;20055;-87
2021/01/18 02:27:14;;;;;;;55.08;28.73;;;-0.10;99.90;;;;;;5017211;28;20049;-87
2021/01/18 02:29:53;;;;;;;50.97;26.73;;;-0.10;99.90;;;;;;5034959;28;20437;-87
2021/01/18 02:33:02;;;;;;;49.42;26.50;;;0.00;99.90;;;;;;5017482;28;20128;-87
2021/01/18 02:36:01;;;;;;;55.85;27.77;;;-0.10;99.90;;;;;;5034765;28;20462;-87
2021/01/18 02:38:53;;;;;;;53.17;27.83;;;-0.30;99.90;;;;;;5034765;28;20042;-87
2021/01/18 02:41:41;;;;;;;54.33;27.55;;;-0.30;99.90;;;;;;5017607;28;20081;-87
2021/01/18 02:44:12;;;;;;;54.78;27.88;;;-0.30;99.90;;;;;;5034558;28;20053;-87
2021/01/18 02:46:41;;;;;;;52.85;27.15;;;-0.20;99.90;;;;;;5017210;28;20140;-87
2021/01/18 02:49:09;;;;;;;52.70;27.67;;;-0.20;99.90;;;;;;5017296;28;20489;-87
2021/01/18 02:51:41;;;;;;;50.88;27.10;;;-0.30;99.90;;;;;;5034730;28;20529;-87
2021/01/18 02:54:08;;;;;;;57.65;29.15;;;-0.20;99.90;;;;;;5017279;28;20498;-87
2021/01/18 02:56:34;;;;;;;53.10;27.98;;;-0.20;99.90;;;;;;5034620;28;20128;-87
2021/01/18 02:59:03;;;;;;;58.75;28.08;;;-0.20;99.90;;;;;;5034153;28;20144;-87
2021/01/18 03:01:58;;;;;;;50.30;27.65;;;-0.20;99.90;;;;;;5016875;28;20081;-87
2021/01/18 03:05:02;;;;;;;51.17;26.80;;;-0.10;99.90;;;;;;5016811;28;20099;-88
2021/01/18 03:07:28;;;;;;;49.08;27.45;;;0.00;99.90;;;;;;5034118;28;20561;-88
2021/01/18 03:10:01;;;;;;;50.65;27.08;;;0.00;99.90;;;;;;5034127;28;20088;-87
2021/01/18 03:12:31;;;;;;;51.60;27.90;;;0.00;99.90;;;;;;5016716;28;20504;-87
2021/01/18 03:14:59;;;;;;;55.35;28.33;;;0.00;99.90;;;;;;5034595;28;20126;-87
2021/01/18 03:17:29;;;;;;;56.67;29.10;;;0.10;99.90;;;;;;5034109;28;20565;-87
2021/01/18 03:19:57;;;;;;;49.83;28.10;;;-0.10;99.90;;;;;;5017070;28;20053;-87
2021/01/18 03:22:29;;;;;;;50.95;26.85;;;0.10;99.90;;;;;;5016433;28;20431;-87
2021/01/18 03:25:04;;;;;;;50.83;27.08;;;0.10;99.90;;;;;;5016664;28;20481;-87
2021/01/18 03:27:51;;;;;;;47.67;25.67;;;0.10;99.90;;;;;;5034017;28;20132;-87
2021/01/18 03:30:21;;;;;;;45.92;25.65;;;0.10;99.90;;;;;;5016303;28;20141;-87
2021/01/18 03:32:55;;;;;;;45.45;26.00;;;0.20;99.90;;;;;;5016317;28;20072;-87
2021/01/18 03:35:22;;;;;;;47.40;25.48;;;0.20;99.90;;;;;;5033752;28;20058;-87
2021/01/18 03:37:53;;;;;;;53.63;26.02;;;0.10;99.90;;;;;;5033642;28;20124;-87
2021/01/18 03:40:21;;;;;;;49.30;27.25;;;0.10;99.90;;;;;;5016262;28;20136;-87
2021/01/18 03:42:59;;;;;;;63.15;28.60;;;0.00;99.90;;;;;;5016004;28;20057;-87
2021/01/18 03:45:28;;;;;;;53.83;26.38;;;0.00;99.90;;;;;;5016365;28;20102;-87
2021/01/18 03:47:54;;;;;;;58.15;27.85;;;0.00;99.90;;;;;;5033583;28;20452;-87
2021/01/18 03:50:21;;;;;;;54.53;27.90;;;0.00;99.90;;;;;;5016293;28;20049;-87
2021/01/18 03:52:49;;;;;;;52.35;28.27;;;-0.10;99.90;;;;;;5016091;28;20085;-87
2021/01/18 03:55:16;;;;;;;53.40;27.67;;;-0.10;99.90;;;;;;5016129;28;20160;-87
2021/01/18 03:57:46;;;;;;;56.47;28.17;;;-0.20;99.90;;;;;;5016000;28;20049;-87
2021/01/18 04:00:13;;;;;;;54.95;27.85;;;-0.20;99.90;;;;;;5016023;28;20104;-87
2021/01/18 04:02:40;;;;;;;58.95;30.00;;;-0.30;99.90;;;;;;5015909;28;20414;-87
2021/01/18 04:05:08;;;;;;;57.90;29.83;;;-0.40;99.90;;;;;;5015799;28;20132;-87
2021/01/18 04:07:34;;;;;;;57.47;29.75;;;-0.50;99.90;;;;;;5033233;28;20144;-87
2021/01/18 04:10:01;;;;;;;55.70;28.90;;;-0.40;99.90;;;;;;5033369;28;20088;-87
2021/01/18 04:12:27;;;;;;;57.60;28.30;;;-0.30;99.90;;;;;;5016109;28;20111;-87
2021/01/18 04:14:53;;;;;;;57.95;29.00;;;-0.30;99.90;;;;;;5015990;28;20128;-87
2021/01/18 04:17:20;;;;;;;55.40;27.77;;;-0.20;99.90;;;;;;5016198;28;20072;-88
2021/01/18 04:19:47;;;;;;;51.97;27.95;;;-0.10;99.90;;;;;;5033333;28;20055;-87
2021/01/18 04:22:13;;;;;;;51.22;28.13;;;0.10;99.90;;;;;;5032927;28;20053;-87
2021/01/18 04:24:40;;;;;;;55.53;28.30;;;-0.10;99.90;;;;;;5033288;28;20300;-87
2021/01/18 04:27:08;;;;;;;58.55;27.88;;;0.10;99.90;;;;;;5016015;28;20058;-87
2021/01/18 04:29:34;;;;;;;57.13;29.23;;;0.10;99.90;;;;;;5033503;28;20145;-87
2021/01/18 04:32:01;;;;;;;61.80;29.48;;;0.00;99.90;;;;;;5015955;28;20053;-87
2021/01/18 04:34:27;;;;;;;55.78;27.08;;;0.00;99.90;;;;;;5015884;28;20053;-87
2021/01/18 04:36:54;;;;;;;53.28;28.00;;;0.00;99.90;;;;;;5048889;28;20072;-87
2021/01/18 04:39:20;;;;;;;51.95;26.98;;;0.00;99.90;;;;;;5033325;28;20606;-87
2021/01/18 04:41:47;;;;;;;51.70;26.83;;;0.10;99.90;;;;;;5033312;28;20049;-87
2021/01/18 04:44:18;;;;;;;56.85;27.45;;;0.00;99.90;;;;;;5015772;28;20081;-87
2021/01/18 04:46:46;;;;;;;55.15;28.25;;;0.10;99.90;;;;;;5016101;28;20057;-87
2021/01/18 04:49:14;;;;;;;52.58;26.30;;;0.10;99.90;;;;;;5035232;28;20559;-87
2021/01/18 04:51:53;;;;;;;52.53;26.70;;;0.10;99.90;;;;;;5019776;28;20696;-87
2021/01/18 04:54:21;;;;;;;50.25;25.38;;;0.20;99.90;;;;;;5019808;28;20136;-87
2021/01/18 04:57:04;;;;;;;48.97;26.00;;;0.20;99.90;;;;;;5019663;28;20132;-87
2021/01/18 04:59:40;;;;;;;52.38;25.67;;;0.20;99.90;;;;;;5052559;28;20049;-87
2021/01/18 05:02:12;;;;;;;50.72;25.45;;;0.10;99.90;;;;;;5052433;28;20473;-87
2021/01/18 05:04:40;;;;;;;50.50;26.40;;;0.00;99.90;;;;;;5019354;28;20099;-87
2021/01/18 05:07:34;;;;;;;45.80;25.02;;;0.10;99.90;;;;;;5052292;28;20045;-87
2021/01/18 05:10:12;;;;;;;54.50;26.13;;;0.20;99.90;;;;;;5019256;28;20061;-87
2021/01/18 05:12:42;;;;;;;43.55;24.20;;;0.10;99.90;;;;;;5019260;28;20133;-87
2021/01/18 05:15:10;;;;;;;44.75;24.20;;;0.20;99.90;;;;;;5036649;28;20148;-87
2021/01/18 05:17:47;;;;;;;50.70;24.95;;;0.10;99.90;;;;;;5019202;28;20053;-86
2021/01/18 05:20:15;;;;;;;49.30;23.60;;;0.10;99.90;;;;;;5019394;28;20132;-87
2021/01/18 05:22:47;;;;;;;43.30;25.63;;;0.10;99.90;;;;;;5051568;28;20069;-86
2021/01/18 05:25:14;;;;;;;49.63;26.33;;;0.20;99.90;;;;;;5018930;28;20076;-87
2021/01/18 05:28:00;;;;;;;62.08;28.33;;;0.20;99.90;;;;;;5019062;28;20050;-87
2021/01/18 05:30:28;;;;;;;49.83;25.77;;;0.20;99.90;;;;;;5051853;28;20049;-87
2021/01/18 05:33:09;;;;;;;56.13;28.17;;;0.20;99.90;;;;;;5018599;28;20096;-87
2021/01/18 05:35:41;;;;;;;50.75;26.83;;;0.20;99.90;;;;;;5018730;28;20073;-87
2021/01/18 05:38:12;;;;;;;47.67;25.85;;;0.20;99.90;;;;;;5018705;28;20135;-87
2021/01/18 05:40:42;;;;;;;55.97;27.10;;;0.10;99.90;;;;;;5036249;28;20111;-87
2021/01/18 05:43:09;;;;;;;47.97;25.83;;;0.10;99.90;;;;;;5018210;28;20129;-87
2021/01/18 05:45:40;;;;;;;46.60;25.05;;;0.10;99.90;;;;;;5018318;28;20054;-87
2021/01/18 05:48:08;;;;;;;49.05;25.80;;;0.10;99.90;;;;;;5018644;28;20565;-87
2021/01/18 05:50:35;;;;;;;49.45;26.38;;;0.20;99.90;;;;;;5035813;28;20053;-88
2021/01/18 05:53:22;;;;;;;46.70;24.73;;;0.20;99.90;;;;;;5018350;28;20053;-88
2021/01/18 05:55:55;;;;;;;45.05;25.60;;;0.20;99.90;;;;;;5035904;28;20060;-87
2021/01/18 05:58:32;;;;;;;50.80;24.55;;;0.20;99.90;;;;;;5050980;28;20123;-87
2021/01/18 06:01:00;;;;;;;58.65;25.75;;;0.20;99.90;;;;;;5018229;28;20057;-87
2021/01/18 06:03:31;;;;;;;56.35;24.80;;;0.20;99.90;;;;;;5018715;28;20464;-87
2021/01/18 06:05:59;;;;;;;55.35;24.67;;;0.20;99.90;;;;;;5035765;28;20111;-87
2021/01/18 06:08:26;;;;;;;60.22;30.85;;;0.00;99.90;;;;;;5017396;28;20115;-88
2021/01/18 06:10:54;;;;;;;66.55;28.75;;;0.00;99.90;;;;;;5018041;28;20053;-87
2021/01/18 06:13:26;;;;;;;57.83;27.38;;;-0.10;99.90;;;;;;5035157;28;20124;-87
2021/01/18 06:16:02;;;;;;;61.30;31.45;;;-0.20;99.90;;;;;;5035478;28;20128;-87
2021/01/18 06:18:33;;;;;;;43.33;21.52;;;-0.30;99.90;;;;;;5035845;28;20048;-87
2021/01/18 06:21:01;;;;;;;39.75;20.42;;;-0.40;99.90;;;;;;5051146;28;20440;-88
2021/01/18 06:23:27;;;;;;;34.70;19.63;;;-0.50;99.90;;;;;;5035385;28;20115;-87
2021/01/18 06:25:56;;;;;;;35.33;19.63;;;-0.60;99.90;;;;;;5035676;28;20057;-88
2021/01/18 06:28:33;;;;;;;46.33;23.52;;;-0.70;99.90;;;;;;5018357;28;20076;-88
2021/01/18 06:31:07;;;;;;;68.75;32.78;;;-0.70;99.90;;;;;;5018237;28;20049;-88
2021/01/18 06:33:41;;;;;;;57.13;28.27;;;-0.80;99.90;;;;;;5051303;28;20051;-88
2021/01/18 06:36:13;;;;;;;69.07;28.63;;;-0.70;99.90;;;;;;5035627;28;20045;-88
2021/01/18 06:38:42;;;;;;;61.92;30.95;;;-0.70;99.90;;;;;;5051124;28;20158;-88
2021/01/18 06:41:09;;;;;;;67.90;30.27;;;-0.60;99.90;;;;;;5035391;28;20532;-88
2021/01/18 06:43:36;;;;;;;84.25;31.30;;;-0.50;99.90;;;;;;5035414;28;20052;-88
2021/01/18 06:46:21;;;;;;;78.68;31.77;;;-0.40;99.90;;;;;;5017951;28;20056;-88
2021/01/18 06:48:51;;;;;;;80.07;32.33;;;-0.40;99.90;;;;;;5017672;28;20107;-88
2021/01/18 06:51:21;;;;;;;70.78;33.42;;;-0.30;99.90;;;;;;5017639;28;20509;-88
2021/01/18 06:53:49;;;;;;;41.67;21.08;;;-0.20;99.90;;;;;;5050922;28;20136;-88
2021/01/18 06:56:21;;;;;;;39.67;19.23;;;-0.10;99.90;;;;;;5017621;28;20049;-88
2021/01/18 06:59:33;;;;;;;45.75;18.58;;;-0.10;99.90;;;;;;5035115;28;20144;-88
2021/01/18 07:02:27;;;;;;;41.97;24.75;;;-0.10;99.90;;;;;;5014770;28;20553;-88
2021/01/18 07:05:06;;;;;;;38.00;16.10;;;-0.20;99.90;;;;;;5017507;28;20071;-88
2021/01/18 07:07:34;;;;;;;31.13;14.40;;;-0.30;99.90;;;;;;5034976;28;20057;-87
2021/01/18 07:10:09;;;;;;;32.17;14.10;;;-0.40;99.90;;;;;;5017447;28;20060;-88
2021/01/18 07:12:35;;;;;;;33.33;14.05;;;-0.40;99.90;;;;;;5016796;28;20132;-88
2021/01/18 07:15:07;;;;;;;31.08;14.35;;;-0.50;99.90;;;;;;5017274;28;20123;-88
2021/01/18 07:17:36;;;;;;;29.95;14.75;;;-0.60;99.90;;;;;;5034698;28;20532;-87
2021/01/18 07:20:07;;;;;;;29.83;17.67;;;-0.70;99.90;;;;;;5034636;28;20108;-88
2021/01/18 07:22:52;;;;;;;25.30;14.20;;;-0.90;99.90;;;;;;5017271;28;20064;-88
2021/01/18 07:25:34;;;;;;;26.17;13.68;;;-1.10;99.90;;;;;;5034574;28;20140;-87
2021/01/18 07:28:03;;;;;;;19.27;11.45;;;-1.20;99.90;;;;;;5017185;28;20087;-88
2021/01/18 07:30:33;;;;;;;28.02;11.57;;;-1.30;99.90;;;;;;5017297;28;20079;-88
2021/01/18 07:33:12;;;;;;;25.00;11.90;;;-1.30;99.90;;;;;;5034231;28;20529;-87
2021/01/18 07:35:41;;;;;;;35.33;12.20;;;-1.40;99.90;;;;;;5017170;28;20482;-88
2021/01/18 07:38:19;;;;;;;29.08;13.13;;;-1.50;99.90;;;;;;5034234;28;20548;-88
2021/01/18 07:41:07;;;;;;;46.78;14.20;;;-1.50;99.90;;;;;;5034318;28;20049;-88
2021/01/18 07:43:44;;;;;;;25.50;11.98;;;-1.50;99.90;;;;;;5016903;28;20049;-88
2021/01/18 07:46:28;;;;;;;28.88;12.73;;;-1.50;99.90;;;;;;5019143;28;20053;-88
2021/01/18 07:48:55;;;;;;;31.65;13.60;;;-1.40;99.90;;;;;;5034396;28;20092;-87
2021/01/18 07:51:23;;;;;;;36.13;12.75;;;-1.50;99.90;;;;;;5033983;28;20148;-88
2021/01/18 07:53:50;;;;;;;25.65;12.48;;;-1.40;99.90;;;;;;5034521;28;20132;-88
2021/01/18 07:56:30;;;;;;;31.27;15.35;;;-1.30;99.90;;;;;;5017066;28;20493;-87
2021/01/18 07:59:07;;;;;;;30.85;16.10;;;-1.20;99.90;;;;;;5017094;28;20084;-87
2021/01/18 08:01:37;;;;;;;54.63;22.30;;;-1.10;99.90;;;;;;5049936;28;20085;-88
2021/01/18 08:04:23;;;;;;;48.78;19.85;;;-1.00;99.90;;;;;;5016880;28;20095;-88
2021/01/18 08:07:07;;;;;;;44.78;22.63;;;-0.80;99.90;;;;;;5016233;28;20055;-88
2021/01/18 08:09:35;;;;;;;46.20;21.33;;;-0.60;99.90;;;;;;5033863;28;20087;-88
2021/01/18 08:12:31;;;;;;;53.15;27.52;;;-0.50;99.90;;;;;;5015944;28;20075;-88
2021/01/18 08:15:07;;;;;;;83.30;41.15;;;-0.40;99.90;;;;;;5016212;28;20092;-88
2021/01/18 08:17:34;;;;;;;83.88;40.63;;;-0.10;99.90;;;;;;5016462;28;20072;-88
2021/01/18 08:20:16;;;;;;;77.43;40.65;;;-0.10;99.90;;;;;;5048796;28;20508;-88
2021/01/18 08:22:43;;;;;;;76.82;41.58;;;0.00;99.90;;;;;;5048507;28;20061;-88
2021/01/18 08:25:09;;;;;;;71.10;39.25;;;0.20;99.90;;;;;;5037301;28;20081;-88
2021/01/18 08:27:50;;;;;;;65.78;38.28;;;0.30;99.90;;;;;;5020193;28;20046;-88
2021/01/18 08:30:18;;;;;;;63.58;32.60;;;0.50;99.90;;;;;;5037394;28;20054;-88
2021/01/18 08:32:58;;;;;;;59.67;33.15;;;0.70;99.90;;;;;;5037267;28;20160;-88
2021/01/18 08:35:31;;;;;;;29.48;15.65;;;0.90;99.90;;;;;;5019870;28;20061;-88
2021/01/18 08:38:37;;;;;;;23.17;14.38;;;1.00;99.90;;;;;;5022915;28;20045;-88
2021/01/18 08:41:05;;;;;;;48.17;28.23;;;1.00;99.90;;;;;;5019760;28;20059;-88
2021/01/18 08:43:49;;;;;;;43.33;22.45;;;0.90;99.90;;;;;;5019921;28;20096;-88
2021/01/18 08:46:39;;;;;;;26.88;12.98;;;1.00;99.90;;;;;;5022264;28;20057;-88
2021/01/18 08:49:27;;;;;;;28.15;12.90;;;1.20;99.90;;;;;;5019564;28;20057;-87
2021/01/18 08:51:55;;;;;;;27.52;13.73;;;1.20;99.90;;;;;;5019406;28;20045;-88
2021/01/18 08:54:38;;;;;;;29.90;12.48;;;1.20;99.90;;;;;;5019563;28;20073;-86
2021/01/18 08:57:24;;;;;;;22.45;12.93;;;1.20;99.90;;;;;;5036936;28;20141;-88
2021/01/18 09:00:04;;;;;;;26.17;13.13;;;1.20;99.90;;;;;;5019738;28;20132;-88
2021/01/18 09:02:31;;;;;;;28.60;15.45;;;1.20;99.90;;;;;;5019681;28;20050;-87
2021/01/18 09:05:17;;;;;;;36.05;17.38;;;1.30;99.90;;;;;;5019266;28;20045;-87
2021/01/18 09:07:45;;;;;;;31.80;15.95;;;1.30;99.90;;;;;;5019295;28;20113;-87
2021/01/18 09:10:22;;;;;;;27.92;15.65;;;1.30;99.90;;;;;;5019208;28;20088;-88
2021/01/18 09:12:50;;;;;;;27.10;14.45;;;1.40;99.90;;;;;;5036473;28;20092;-88
2021/01/18 09:15:19;;;;;;;29.50;14.75;;;1.30;99.90;;;;;;5036701;28;20472;-88
2021/01/18 09:17:46;;;;;;;23.92;11.75;;;1.30;99.90;;;;;;5019276;28;20128;-88
2021/01/18 09:20:13;;;;;;;30.23;13.10;;;1.50;99.90;;;;;;5026035;28;20045;-87
2021/01/18 09:22:42;;;;;;;76.45;39.65;;;1.60;99.90;;;;;;5007739;28;20133;-87
2021/01/18 09:25:11;;;;;;;59.45;31.92;;;1.60;99.90;;;;;;5026466;28;20077;-87
2021/01/18 09:27:38;;;;;;;59.35;29.02;;;1.60;99.90;;;;;;5015966;28;20577;-88
2021/01/18 09:30:15;;;;;;;53.15;28.45;;;1.70;99.90;;;;;;5019078;28;20508;-88
2021/01/18 09:32:58;;;;;;;37.13;17.85;;;1.80;99.90;;;;;;5036176;28;20096;-88
2021/01/18 09:35:35;;;;;;;40.28;19.00;;;2.00;99.90;;;;;;5018150;28;20374;-87
2021/01/18 09:38:03;;;;;;;41.10;22.30;;;2.10;99.90;;;;;;5036570;28;20516;-87
2021/01/18 09:40:31;;;;;;;41.35;20.65;;;2.30;99.90;;;;;;5019024;28;20132;-87
2021/01/18 09:42:58;;;;;;;34.17;17.58;;;2.50;99.90;;;;;;5018776;28;20573;-87
2021/01/18 09:45:26;;;;;;;46.28;22.15;;;2.80;99.90;;;;;;5018595;28;20132;-88
2021/01/18 09:48:04;;;;;;;56.85;30.00;;;2.90;99.90;;;;;;5018994;28;20046;-87
2021/01/18 09:50:30;;;;;;;69.78;35.00;;;3.00;99.90;;;;;;5035985;28;20050;-87
2021/01/18 09:52:57;;;;;;;61.40;32.28;;;3.30;99.90;;;;;;5035468;28;20538;-86
2021/01/18 09:55:25;;;;;;;51.25;26.25;;;3.70;99.90;;;;;;5018417;28;20136;-87
2021/01/18 09:58:09;;;;;;;49.65;24.40;;;4.10;99.90;;;;;;5018038;28;20505;-86
2021/01/18 10:00:37;;;;;;;39.50;20.88;;;4.40;99.90;;;;;;5018169;28;20489;-86
2021/01/18 10:03:05;;;;;;;45.20;20.15;;;4.50;99.90;;;;;;5017926;28;20045;-86
2021/01/18 10:05:40;;;;;;;36.83;17.02;;;4.40;99.90;;;;;;5017996;28;20049;-86
2021/01/18 10:08:17;;;;;;;33.75;16.77;;;4.20;99.90;;;;;;5035360;28;20137;-86
2021/01/18 10:10:50;;;;;;;28.20;14.90;;;4.30;99.90;;;;;;5017544;28;20490;-86
2021/01/18 10:13:23;;;;;;;;;;;4.70;99.90;;;;;;5018370;28;20497;-86
2021/01/18 10:15:49;;;;;;;23.73;13.00;;;4.80;99.90;;;;;;5035705;28;20000;-86
2021/01/18 10:18:38;;;;;;;30.40;13.27;;;4.90;99.90;;;;;;5017358;28;20132;-86
2021/01/18 10:21:05;;;;;;;25.83;11.98;;;5.20;99.90;;;;;;5018080;28;20132;-86
2021/01/18 10:23:40;;;;;;;26.15;13.93;;;5.30;99.90;;;;;;5034447;28;20088;-86
2021/01/18 10:26:21;;;;;;;23.00;12.05;;;5.20;99.90;;;;;;5033560;28;20107;-86
2021/01/18 10:28:52;;;;;;;14.07;8.55;;;5.20;99.90;;;;;;5015887;28;20116;-86
2021/01/18 10:31:20;;;;;;;20.58;13.13;;;5.40;99.90;;;;;;5015575;28;20092;-86
2021/01/18 10:34:11;;;;;;;15.52;9.80;;;5.80;99.90;;;;;;5033308;28;20045;-86
2021/01/18 10:36:44;;;;;;;11.18;7.47;;;6.30;99.90;;;;;;5016159;28;20060;-86
2021/01/18 10:39:33;;;;;;;9.88;5.57;;;6.20;99.90;;;;;;5016983;28;20493;-86
2021/01/18 10:42:17;;;;;;;12.02;6.28;;;6.40;99.90;;;;;;5038096;28;20080;-86
2021/01/18 10:44:55;;;;;;;5.63;3.55;;;6.50;99.90;;;;;;5034610;28;20559;-86
2021/01/18 10:47:28;;;;;;;4.88;3.50;;;6.70;99.90;;;;;;5033642;28;20085;-86
2021/01/18 10:50:00;;;;;;;5.97;2.95;;;6.70;99.90;;;;;;5017565;28;20053;-87
2021/01/18 10:52:42;;;;;;;7.15;3.38;;;6.80;99.90;;;;;;5017274;28;20049;-86
2021/01/18 10:55:12;;;;;;;3.25;2.92;;;6.90;99.90;;;;;;5034571;28;20513;-87
2021/01/18 10:57:47;;;;;;;3.47;2.63;;;6.50;99.90;;;;;;5018466;28;20057;-87
2021/01/18 11:00:15;;;;;;;3.33;3.03;;;6.40;99.90;;;;;;5016662;28;20057;-87
2021/01/18 11:02:43;;;;;;;7.35;3.08;;;6.50;99.90;;;;;;5017053;28;20053;-87
2021/01/18 11:05:16;;;;;;;10.65;3.72;;;6.70;99.90;;;;;;5017718;28;20057;-86
2021/01/18 11:07:46;;;;;;;3.85;2.95;;;6.60;99.90;;;;;;5017341;28;20061;-86
2021/01/18 11:10:14;;;;;;;6.20;2.85;;;6.40;99.90;;;;;;5017091;28;20050;-86
2021/01/18 11:12:41;;;;;;;9.55;3.10;;;6.20;99.90;;;;;;5016994;28;20081;-87
2021/01/18 11:15:10;;;;;;;2.95;2.65;;;6.00;99.90;;;;;;5016955;28;20191;-87
2021/01/18 11:17:37;;;;;;;4.90;3.20;;;5.80;99.90;;;;;;5017032;28;20068;-86
2021/01/18 11:20:08;;;;;;;5.40;2.55;;;5.80;99.90;;;;;;5016953;28;20049;-86
2021/01/18 11:22:35;;;;;;;5.60;2.95;;;6.20;99.90;;;;;;5016486;28;20049;-87
2021/01/18 11:25:02;;;;;;;6.03;2.97;;;6.40;99.90;;;;;;5033963;28;20571;-88
2021/01/18 11:27:29;;;;;;;4.35;2.72;;;6.40;99.90;;;;;;5016623;28;20084;-87
2021/01/18 11:29:55;;;;;;;3.17;2.65;;;6.30;99.90;;;;;;5017161;28;20049;-88
2021/01/18 11:32:22;;;;;;;6.18;2.67;;;6.30;99.90;;;;;;5016734;28;20532;-87
2021/01/18 11:34:48;;;;;;;4.57;2.47;;;6.20;99.90;;;;;;5033816;28;20524;-88
2021/01/18 11:37:14;;;;;;;4.93;2.63;;;6.30;99.90;;;;;;5016833;28;20054;-88
2021/01/18 11:39:41;;;;;;;4.63;2.53;;;6.20;99.90;;;;;;5016889;28;20073;-87
2021/01/18 11:42:07;;;;;;;3.35;2.50;;;6.00;99.90;;;;;;5032882;28;20085;-88
2021/01/18 11:44:34;;;;;;;3.08;2.78;;;5.90;99.90;;;;;;5016650;28;20571;-89
2021/01/18 11:47:01;;;;;;;4.18;2.85;;;5.70;99.90;;;;;;5016360;28;20569;-87
2021/01/18 11:49:28;;;;;;;6.85;2.90;;;5.60;99.90;;;;;;5034076;28;20515;-88
2021/01/18 11:51:55;;;;;;;2.75;2.55;;;5.50;99.90;;;;;;5016635;28;20132;-88
2021/01/18 11:54:22;;;;;;;7.75;2.30;;;5.30;99.90;;;;;;5033952;28;20501;-88
2021/01/18 11:56:48;;;;;;;7.15;2.67;;;5.30;99.90;;;;;;5016656;28;20076;-88
2021/01/18 11:59:14;;;;;;;3.50;3.05;;;5.40;99.90;;;;;;5016711;28;20084;-89
2021/01/18 12:01:44;;;;;;;3.75;2.53;;;5.60;99.90;;;;;;5016797;28;20136;-89
2021/01/18 12:04:11;;;;;;;6.35;2.58;;;5.80;99.90;;;;;;5016346;28;20053;-88
2021/01/18 12:06:39;;;;;;;5.10;2.92;;;5.80;99.90;;;;;;5033672;28;20045;-89
2021/01/18 12:09:07;;;;;;;6.85;2.90;;;5.80;99.90;;;;;;5016338;28;20470;-89
2021/01/18 12:11:40;;;;;;;6.85;3.33;;;5.90;99.90;;;;;;5016215;28;20077;-89
2021/01/18 12:14:07;;;;;;;;;;;5.50;99.90;;;;;;5016858;28;20124;-90
2021/01/18 12:16:34;;;;;;;4.78;2.60;;;5.50;99.90;;;;;;5016160;28;19932;-89
2021/01/18 12:19:00;;;;;;;3.65;2.83;;;5.60;99.90;;;;;;5016183;28;20092;-89
2021/01/18 12:21:27;;;;;;;4.82;2.97;;;5.60;99.90;;;;;;5033485;28;20403;-89
2021/01/18 12:23:53;;;;;;;4.35;3.50;;;5.60;99.90;;;;;;5033444;28;20136;-89
2021/01/18 12:26:20;;;;;;;6.53;3.17;;;5.50;99.90;;;;;;5016163;28;20580;-90
2021/01/18 12:28:48;;;;;;;6.07;3.25;;;5.50;99.90;;;;;;5033426;28;20080;-90
2021/01/18 12:31:15;;;;;;;6.22;3.60;;;5.40;99.90;;;;;;5016066;28;20122;-89
2021/01/18 12:33:43;;;;;;;5.22;3.65;;;5.30;99.90;;;;;;5016131;28;20085;-89
2021/01/18 12:36:10;;;;;;;6.15;3.78;;;5.20;99.90;;;;;;5016015;28;20140;-90
2021/01/18 12:38:36;;;;;;;6.60;3.40;;;5.20;99.90;;;;;;5015923;28;20056;-89
2021/01/18 12:41:03;;;;;;;5.72;3.65;;;5.20;99.90;;;;;;5015956;28;20505;-90
2021/01/18 12:43:29;;;;;;;5.63;3.28;;;5.10;99.90;;;;;;5016185;28;20042;-90
2021/01/18 12:45:56;;;;;;;8.98;3.60;;;5.10;99.90;;;;;;5033394;28;20115;-90
2021/01/18 12:48:23;;;;;;;3.08;2.83;;;5.00;99.90;;;;;;5016139;28;20054;-90
2021/01/18 12:50:49;;;;;;;5.53;3.10;;;5.00;99.90;;;;;;5033226;28;20076;-90
2021/01/18 12:53:43;;;;;;;6.60;3.58;;;4.90;99.90;;;;;;5015793;28;20050;-90
2021/01/18 12:56:02;;;;;;;4.47;3.67;;;4.70;99.90;;;;;;5033056;28;20128;-92
2021/01/18 12:58:29;;;;;;;6.95;5.15;;;4.60;99.90;;;;;;5015717;28;20046;-92
2021/01/18 13:00:55;;;;;;;5.70;4.07;;;4.50;99.90;;;;;;5015932;28;20137;-92